Athol, KS

2:33 PM CST on December 22, 2014 (GMT -0600)
RAWS KIRWIN KS US | Change Station
CLOSE
Current Station
Personal Weather Station
Location: Kirwin, KS
Elevation: 1747 ft
Nearby Weather Stations

Elev 1747 ft 39.67 °N, 99.20 °W | Updated 37 minutes ago

Partly Cloudy
Partly Cloudy
54 °F
Feels Like 54 °F
N
19
Wind Variable Wind from NNW
Gusts 28.0 mph

Today
High -- | Low -- °F
--% Chance of Precip.
Yesterday
High -- | Low -- °F
Precip. -- in
7:53 AM 5:14 PM
New Moon, 1% visible
Pressure 29.49 in
Visibility 10.0 miles
Clouds Scattered Clouds 5000 ft
Scattered Clouds 6000 ft
Dew Point 28 °F
Humidity 36%
Rainfall 0.00 in
Snow Depth Not available.
UV 1 out of 12
Pollen .10 out of 12
Air Quality Not available.
Flu Activity Not available.
METAR KHDE 222015Z AUTO 32019G25KT 10SM SCT050 SCT060 09/M01 A2949 RMK AO2 T00891011

More Conditions Fewer Conditions

Pressure 29.49 in
Visibility 10.0 miles
Clouds Scattered Clouds 5000 ft
Scattered Clouds 6000 ft
Dew Point 28 °F
Humidity 36%
Rainfall 0.00 in
Snow Depth Not available.
UV 1 out of 12
Pollen .10 out of 12
Air Quality Not available.
Flu Activity Not available.
METAR KHDE 222015Z AUTO 32019G25KT 10SM SCT050 SCT060 09/M01 A2949 RMK AO2 T00891011

More Conditions Fewer Conditions

10-Day Weather Forecast

Almanac

Astronomy

Dec. 22, 2014 Rise Set
Actual Time
Civil Twilight
Nautical Twilight
Astronomical Twilight
Moon
Length of Visible Light
Length of Day
Tomorrow will be .
, % of the Moon is Illuminated

Today's Extremes

State Highs State Lows

Community

WunderPhotos

Upload Photos

1,779,680 photos uploaded!

WunderBlogs® & News

Nearby

Air Quality

  Air Quality AQ Index Pollutant
Not available.

Snow Depth

Station Depth Elevation

Earthquake Activity

City Distance Mag. Time & Date
Minimum magnitude displayed is 2.5.

Coastal Water Temperatures

Place Temperature

Nearby Weather Stations